Time;durP1;ratioP1;P1;durP2;ratioP2;P2;SDS_P1;SDS_P2;PMS_P1;PMS_P2;Temp;Humidity;BMP_temperature;BMP_pressure;BME280_temperature;BME280_humidity;BME280_pressure;Samples;Min_cycle;Max_cycle;Signal;HPM_P1;HPM_P2
2021/12/22 00:01:46;;;;;;;;;64.33;49.00;;;;;5.68;63.87;102056.03;5060847;28;61851;-75
2021/12/22 00:04:11;;;;;;;;;71.67;53.33;;;;;5.69;63.57;102063.94;5060181;28;61910;-75
2021/12/22 00:06:37;;;;;;;;;73.67;51.33;;;;;5.67;63.47;102072.41;5059365;28;61785;-75
2021/12/22 00:09:05;;;;;;;;;73.00;50.00;;;;;5.67;63.99;102067.22;5061833;28;61767;-75
2021/12/22 00:11:31;;;;;;;;;63.33;49.00;;;;;5.64;64.02;102062.66;5061359;28;63835;-75
2021/12/22 00:13:57;;;;;;;;;66.00;48.33;;;;;5.62;63.68;102066.81;5064842;28;61840;-75
2021/12/22 00:16:22;;;;;;;;;61.33;48.00;;;;;5.61;63.78;102059.78;5064920;28;61921;-75
2021/12/22 00:18:48;;;;;;;;;59.67;46.33;;;;;5.62;63.89;102055.50;5064881;28;62069;-75
2021/12/22 00:21:14;;;;;;;;;58.33;46.33;;;;;5.57;63.75;102049.91;5064035;28;63212;-75
2021/12/22 00:23:40;;;;;;;;;52.33;43.00;;;;;5.50;63.67;102051.06;5080351;28;61840;-75
2021/12/22 00:26:05;;;;;;;;;62.67;43.67;;;;;5.43;63.91;102056.53;5064599;28;61777;-75
2021/12/22 00:28:32;;;;;;;;;48.33;43.00;;;;;5.48;64.23;102055.25;5063524;28;61888;-75
2021/12/22 00:30:58;;;;;;;;;50.33;42.00;;;;;5.51;64.25;102046.78;5079600;28;64009;-75
2021/12/22 00:33:27;;;;;;;;;60.33;44.67;;;;;5.52;64.13;102039.06;5064126;28;61926;-75
2021/12/22 00:35:52;;;;;;;;;49.67;45.00;;;;;5.56;64.20;102036.75;5066446;28;62029;-75
2021/12/22 00:38:19;;;;;;;;;65.33;48.33;;;;;5.55;64.11;102038.44;5043345;28;61944;-75
2021/12/22 00:40:46;;;;;;;;;28.00;12.33;;;;;5.53;64.02;102046.13;5043645;28;62851;-75
2021/12/22 00:43:13;;;;;;;;;65.67;48.67;;;;;5.50;63.74;102050.16;5059708;28;61895;-75
2021/12/22 00:45:39;;;;;;;;;62.33;49.33;;;;;5.43;63.95;102055.63;5044299;28;61684;-75
2021/12/22 00:48:06;;;;;;;;;45.33;39.67;;;;;5.41;63.94;102045.06;5059756;28;61847;-75
2021/12/22 00:50:33;;;;;;;;;60.00;44.33;;;;;5.36;63.78;102048.09;5058981;28;63650;-75
2021/12/22 00:52:58;;;;;;;;;58.00;44.33;;;;;5.33;63.83;102044.44;5044112;28;62273;-75
2021/12/22 00:55:24;;;;;;;;;60.33;46.00;;;;;5.34;63.90;102040.13;5043881;28;61798;-75
2021/12/22 00:57:50;;;;;;;;;46.00;39.33;;;;;5.36;64.45;102045.47;5044008;28;61698;-75
2021/12/22 01:00:17;;;;;;;;;47.00;43.33;;;;;5.35;64.56;102049.75;5043364;28;61984;-75
2021/12/22 01:02:44;;;;;;;;;56.00;46.67;;;;;5.36;64.84;102050.69;5059136;28;61990;-75
2021/12/22 01:05:14;;;;;;;;;69.00;46.67;;;;;5.32;64.84;102040.00;5059413;28;61980;-75
2021/12/22 01:07:40;;;;;;;;;53.67;47.00;;;;;5.33;64.81;102049.63;5044188;28;61851;-75
2021/12/22 01:10:07;;;;;;;;;64.67;47.00;;;;;5.27;64.72;102042.97;5043110;28;61973;-75
2021/12/22 01:12:32;;;;;;;;;47.00;36.67;;;;;5.27;64.22;102048.16;5043741;28;62053;-75
2021/12/22 01:14:58;;;;;;;;;57.00;41.00;;;;;5.32;64.69;102059.91;5059169;28;61876;-75
2021/12/22 01:17:23;;;;;;;;;62.67;45.67;;;;;5.32;64.85;102060.81;5043763;28;61969;-75
2021/12/22 01:22:30;;;;;;;;;68.33;48.33;;;;;5.31;64.54;102056.41;5043162;28;61822;-75
2021/12/22 01:25:03;;;;;;;;;69.33;47.33;;;;;5.30;64.52;102053.66;5043613;28;61911;-75
2021/12/22 01:27:37;;;;;;;;;62.67;43.00;;;;;5.33;64.72;102040.91;5059218;28;62149;-75
2021/12/22 01:30:10;;;;;;;;;72.00;45.00;;;;;5.27;64.62;102032.56;5058227;28;63635;-75
2021/12/22 01:32:35;;;;;;;;;52.33;44.33;;;;;5.28;64.71;102032.69;5043037;28;62101;-75
2021/12/22 01:35:03;;;;;;;;;61.33;46.67;;;;;5.30;64.92;102035.44;5049140;28;62050;-75
2021/12/22 01:37:29;;;;;;;;;67.33;50.33;;;;;5.27;65.03;102033.50;5063533;28;61781;-75
2021/12/22 01:39:55;;;;;;;;;60.33;43.33;;;;;5.23;64.70;102026.19;5062721;28;62002;-75
2021/12/22 01:42:20;;;;;;;;;64.33;46.33;;;;;5.20;64.74;102019.81;5063558;28;61883;-75
2021/12/22 01:45:24;;;;;;;;;63.33;49.00;;;;;5.20;64.79;102020.72;5061955;28;62302;-75
2021/12/22 01:50:51;;;;;;;;;50.67;41.67;;;;;5.20;65.19;102031.13;5062685;28;61885;-75
2021/12/22 01:53:19;;;;;;;;;61.33;46.33;;;;;5.20;64.56;102033.72;5063242;28;62038;-75
2021/12/22 01:55:57;;;;;;;;;57.00;43.33;;;;;5.14;64.97;102033.19;5063171;28;61655;-75
2021/12/22 01:58:32;;;;;;;;;54.33;41.00;;;;;5.16;64.76;102026.44;5063514;28;61792;-75
2021/12/22 02:00:59;;;;;;;;;52.33;40.33;;;;;5.09;64.53;102035.41;5061004;28;63776;-75
2021/12/22 02:03:25;;;;;;;;;69.00;47.00;;;;;4.94;65.32;102027.97;5063312;28;61986;-75
2021/12/22 02:05:51;;;;;;;;;60.67;45.00;;;;;4.94;65.70;102027.97;5063169;28;62302;-75
2021/12/22 02:08:16;;;;;;;;;50.67;42.00;;;;;4.96;65.52;102019.50;5063443;28;61742;-74
2021/12/22 02:10:46;;;;;;;;;51.33;45.00;;;;;4.88;65.74;102016.28;5062368;28;62052;-75
2021/12/22 02:13:16;;;;;;;;;51.67;42.33;;;;;4.91;65.56;102018.22;5062921;28;62428;-75
2021/12/22 02:15:47;;;;;;;;;67.00;42.33;;;;;4.94;65.89;102021.06;5063060;28;61748;-75
2021/12/22 02:18:21;;;;;;;;;55.67;38.00;;;;;4.98;65.72;102012.75;5062972;28;61811;-75
2021/12/22 02:20:49;;;;;;;;;69.67;43.67;;;;;5.08;66.03;102019.69;5062104;28;61966;-75
2021/12/22 02:23:15;;;;;;;;;52.33;35.33;;;;;5.12;66.00;102020.06;5062773;28;61853;-75
2021/12/22 02:25:53;;;;;;;;;60.67;42.00;;;;;5.18;65.23;102022.25;5062745;28;61797;-75
2021/12/22 02:28:24;;;;;;;;;68.67;43.00;;;;;5.25;65.43;102029.84;5062982;28;61869;-75
2021/12/22 02:30:51;;;;;;;;;62.33;44.67;;;;;5.33;65.17;102035.69;5060608;28;63831;-75
2021/12/22 02:33:23;;;;;;;;;54.67;44.33;;;;;5.39;65.00;102025.81;5060856;28;62011;-75
2021/12/22 02:38:42;;;;;;;;;55.67;43.00;;;;;5.54;64.83;102023.59;5042749;28;61684;-75
2021/12/22 02:41:14;;;;;;;;;65.00;43.00;;;;;5.58;65.08;102019.56;5041602;28;63159;-75
2021/12/22 02:43:50;;;;;;;;;58.00;43.00;;;;;5.58;64.82;102019.56;5058001;28;61885;-75
2021/12/22 02:46:19;;;;;;;;;52.00;39.00;;;;;5.60;64.38;102018.00;5042360;28;61660;-75
2021/12/22 02:48:45;;;;;;;;;51.33;33.33;;;;;5.38;64.91;102026.59;5042643;28;61766;-75
2021/12/22 02:51:11;;;;;;;;;61.33;43.00;;;;;5.38;64.96;102020.44;5041334;28;62949;-75
2021/12/22 02:53:42;;;;;;;;;50.67;35.67;;;;;5.36;65.01;102016.84;5057772;28;62110;-75
2021/12/22 02:58:58;;;;;;;;;62.00;47.00;;;;;5.20;65.14;102009.41;5042131;28;61825;-75
2021/12/22 03:01:54;;;;;;;;;56.67;41.00;;;;;5.25;65.43;102008.13;5040069;28;63575;-75
2021/12/22 03:04:19;;;;;;;;;51.67;40.00;;;;;5.27;65.24;102011.72;5042148;27;61880;-75
2021/12/22 03:09:24;;;;;;;;;66.67;47.67;;;;;5.40;64.58;102006.81;5042246;28;62039;-75
2021/12/22 03:11:54;;;;;;;;;74.00;46.00;;;;;5.50;64.67;102003.28;5056910;28;64936;-75
2021/12/22 03:14:20;;;;;;;;;51.33;43.00;;;;;5.54;64.63;102002.75;5041734;28;62118;-75
2021/12/22 03:16:46;;;;;;;;;54.67;42.67;;;;;5.54;64.46;102005.34;5042061;28;61825;-75
2021/12/22 03:19:14;;;;;;;;;66.00;45.33;;;;;5.61;64.03;102015.50;5057334;28;62083;-75
2021/12/22 03:21:43;;;;;;;;;57.33;40.33;;;;;5.66;64.16;102011.59;5041395;28;62381;-75
2021/12/22 03:24:10;;;;;;;;;55.67;33.67;;;;;5.68;63.93;102009.13;5057074;28;61971;-75
2021/12/22 03:26:42;;;;;;;;;66.33;43.67;;;;;5.63;64.24;102013.94;5041693;28;61770;-75
2021/12/22 03:29:16;;;;;;;;;52.67;40.67;;;;;5.58;64.15;102006.53;5041829;28;61998;-75
2021/12/22 03:31:41;;;;;;;;;64.00;46.00;;;;;5.55;64.08;102007.19;5041417;28;61787;-75
2021/12/22 03:34:08;;;;;;;;;54.33;43.67;;;;;5.60;63.85;102011.09;5039905;28;62036;-75
2021/12/22 03:36:35;;;;;;;;;55.00;39.33;;;;;5.64;64.27;102013.16;5058835;28;61852;-75
2021/12/22 03:39:01;;;;;;;;;53.67;38.33;;;;;5.64;63.63;102005.34;5062075;28;61797;-75
2021/12/22 03:41:26;;;;;;;;;59.33;42.33;;;;;5.64;63.60;102010.56;5059607;28;63853;-75
2021/12/22 03:43:52;;;;;;;;;56.33;43.00;;;;;5.59;63.81;102010.94;5077120;28;61787;-75
2021/12/22 03:46:17;;;;;;;;;36.67;34.33;;;;;5.69;63.95;102019.66;5078642;28;62180;-75
2021/12/22 03:48:43;;;;;;;;;55.67;40.00;;;;;5.75;64.36;102021.88;5065696;28;61928;-75
2021/12/22 03:51:09;;;;;;;;;64.67;45.00;;;;;5.76;63.78;102013.25;5080033;28;64692;-75
2021/12/22 03:53:35;;;;;;;;;56.67;42.33;;;;;5.82;63.42;102019.00;5065231;28;62003;-75
2021/12/22 03:56:01;;;;;;;;;52.67;41.33;;;;;5.87;63.12;102021.97;5080496;28;61866;-75
2021/12/22 03:58:27;;;;;;;;;61.33;49.67;;;;;5.84;63.13;102019.13;5080651;28;62013;-75
2021/12/22 04:00:55;;;;;;;;;56.67;45.33;;;;;5.81;63.21;102014.56;5064425;28;63439;-75
2021/12/22 04:03:23;;;;;;;;;63.33;47.67;;;;;5.86;63.35;101999.31;5064923;28;62344;-75
2021/12/22 04:05:49;;;;;;;;;68.00;45.00;;;;;5.92;63.54;101999.84;5080675;28;61953;-75
2021/12/22 04:08:18;;;;;;;;;64.33;44.00;;;;;5.96;63.22;101990.63;5065300;28;62346;-75
2021/12/22 04:10:44;;;;;;;;;59.00;42.33;;;;;5.97;62.92;101995.03;5064418;28;61730;-75
2021/12/22 04:13:10;;;;;;;;;50.00;39.00;;;;;5.92;62.81;101995.53;5064855;28;61887;-75
2021/12/22 04:15:35;;;;;;;;;72.00;46.00;;;;;5.96;62.81;101993.22;5064863;28;61759;-75
2021/12/22 04:18:01;;;;;;;;;64.00;42.00;;;;;5.72;62.55;101992.97;5080733;28;62029;-75
2021/12/22 04:20:28;;;;;;;;;50.67;43.00;;;;;5.65;62.52;101998.44;5063896;28;61875;-75
2021/12/22 04:22:54;;;;;;;;;58.67;41.00;;;;;5.50;63.39;101998.97;5064809;28;61733;-75
2021/12/22 04:25:21;;;;;;;;;62.67;44.33;;;;;5.47;63.35;101993.53;5063967;28;61982;-75
2021/12/22 04:28:04;;;;;;;;;65.33;46.67;;;;;5.54;63.75;101998.44;5080722;27;62291;-75
2021/12/22 04:30:30;;;;;;;;;70.33;45.33;;;;;5.53;63.46;101995.75;5079350;28;63808;-75
2021/12/22 04:32:55;;;;;;;;;55.67;46.00;;;;;5.54;63.59;101998.44;5063229;28;62110;-75
2021/12/22 04:35:21;;;;;;;;;56.33;41.67;;;;;5.58;63.01;101998.72;5055741;28;61989;-75
2021/12/22 04:37:47;;;;;;;;;60.00;43.00;;;;;5.50;63.18;102000.66;5061427;28;62024;-75
2021/12/22 04:40:13;;;;;;;;;48.33;40.00;;;;;5.41;62.88;102008.63;5079236;28;63762;-75
2021/12/22 04:42:39;;;;;;;;;43.67;31.00;;;;;5.46;63.61;102011.59;5064251;28;61754;-75
2021/12/22 04:45:07;;;;;;;;;62.33;38.00;;;;;5.47;63.17;102005.63;5064393;28;61848;-75
2021/12/22 04:47:33;;;;;;;;;53.67;36.00;;;;;5.39;63.38;102007.56;5064456;28;62074;-75
2021/12/22 04:50:00;;;;;;;;;49.33;36.67;;;;;5.44;63.20;101997.53;5063754;28;61833;-75
2021/12/22 04:52:32;;;;;;;;;41.33;35.33;;;;;5.36;63.60;102004.72;5079713;28;61917;-75
2021/12/22 04:55:04;;;;;;;;;67.67;45.00;;;;;5.31;63.35;102000.81;5079702;28;61997;-75
2021/12/22 04:57:31;;;;;;;;;63.67;46.33;;;;;5.27;63.53;102010.06;5063125;28;62242;-75
2021/12/22 04:59:57;;;;;;;;;62.33;43.00;;;;;5.29;63.55;102008.50;5079139;28;65040;-75
2021/12/22 05:02:22;;;;;;;;;51.00;41.67;;;;;5.40;63.73;102009.41;5064024;28;61945;-75
2021/12/22 05:04:48;;;;;;;;;63.67;43.33;;;;;5.39;63.21;101997.16;5079246;28;62476;-75
2021/12/22 05:07:13;;;;;;;;;46.67;36.33;;;;;5.36;62.89;101994.31;5064181;28;61979;-75
2021/12/22 05:09:39;;;;;;;;;48.67;31.33;;;;;5.34;63.92;101982.84;5078733;28;63831;-75
2021/12/22 05:12:05;;;;;;;;;54.67;40.67;;;;;5.40;63.17;101983.38;5063959;28;62003;-75
2021/12/22 05:14:31;;;;;;;;;63.67;46.00;;;;;5.48;63.43;101984.94;5064026;28;61812;-75
2021/12/22 05:17:01;;;;;;;;;67.00;45.00;;;;;5.48;63.43;101973.59;5064229;28;62177;-75
2021/12/22 05:19:27;;;;;;;;;58.33;36.67;;;;;5.55;63.61;101983.75;5063086;28;61974;-75
2021/12/22 05:21:53;;;;;;;;;54.67;39.33;;;;;5.50;63.02;101969.41;5063693;28;62347;-75
2021/12/22 05:24:18;;;;;;;;;46.67;37.00;;;;;5.58;62.99;101978.78;5063692;28;61844;-75
2021/12/22 05:26:44;;;;;;;;;45.67;39.67;;;;;5.53;62.60;101972.31;5063412;28;61742;-75
2021/12/22 05:29:10;;;;;;;;;46.67;36.67;;;;;5.51;62.55;101982.59;5063032;28;62092;-75
2021/12/22 05:31:35;;;;;;;;;54.67;41.00;;;;;5.54;63.11;101977.63;5063600;28;61950;-75
2021/12/22 05:34:01;;;;;;;;;52.33;40.33;;;;;5.58;62.84;101984.00;5079047;28;61998;-75
2021/12/22 05:36:26;;;;;;;;;53.33;40.33;;;;;5.66;62.68;101982.03;5063529;28;62266;-75
2021/12/22 05:38:53;;;;;;;;;67.67;49.33;;;;;5.57;62.74;101976.97;5062495;28;62514;-75
2021/12/22 05:41:19;;;;;;;;;66.67;46.00;;;;;5.57;62.67;101981.25;5061903;28;62179;-75
2021/12/22 05:43:44;;;;;;;;;48.00;36.67;;;;;5.57;62.92;101979.59;5063333;28;61785;-75
2021/12/22 05:46:10;;;;;;;;;61.33;38.67;;;;;5.57;62.79;101970.84;5063579;28;61818;-75
2021/12/22 05:48:35;;;;;;;;;64.00;40.67;;;;;5.57;62.78;101976.06;5061234;28;65220;-75
2021/12/22 05:51:02;;;;;;;;;48.00;38.00;;;;;5.55;62.55;101981.16;5063159;28;61984;-75
2021/12/22 05:53:28;;;;;;;;;62.00;46.00;;;;;5.47;62.87;101984.81;5061893;28;62079;-75
2021/12/22 05:55:55;;;;;;;;;52.67;38.00;;;;;5.44;62.81;101982.84;5061854;28;61833;-75
2021/12/22 05:58:22;;;;;;;;;52.67;43.00;;;;;5.53;63.36;101985.31;5061200;28;63923;-75
2021/12/22 06:00:48;;;;;;;;;53.67;45.33;;;;;5.62;63.12;101993.91;5062680;28;61943;-75
2021/12/22 06:03:14;;;;;;;;;60.67;45.00;;;;;5.71;62.93;101997.25;5063301;28;61897;-75
2021/12/22 06:05:40;;;;;;;;;53.00;40.67;;;;;5.77;63.66;101993.34;5063183;28;62184;-75
2021/12/22 06:08:06;;;;;;;;;53.33;43.00;;;;;5.78;62.62;101993.47;5062275;28;62029;-75
2021/12/22 06:10:34;;;;;;;;;65.67;43.00;;;;;5.85;62.94;101992.28;5061652;28;61762;-75
2021/12/22 06:13:02;;;;;;;;;51.33;40.00;;;;;5.91;62.46;101990.19;5061684;28;61771;-75
2021/12/22 06:15:27;;;;;;;;;44.33;36.00;;;;;5.88;61.94;101989.94;5061794;28;61788;-75
2021/12/22 06:17:56;;;;;;;;;64.67;45.00;;;;;5.85;62.20;101993.22;5060765;28;63820;-75
2021/12/22 06:20:21;;;;;;;;;57.00;38.33;;;;;5.77;62.30;101990.75;5061533;28;61841;-75
2021/12/22 06:22:47;;;;;;;;;50.00;38.00;;;;;5.70;61.59;101995.44;5061022;28;61797;-75
2021/12/22 06:25:12;;;;;;;;;44.00;36.33;;;;;5.71;62.04;101991.16;5061554;28;61706;-75
2021/12/22 06:27:37;;;;;;;;;40.67;30.67;;;;;5.68;61.56;101988.28;5062000;28;61776;-75
2021/12/22 06:30:04;;;;;;;;;62.00;38.33;;;;;5.72;61.68;101992.97;5062785;28;61878;-75
2021/12/22 06:32:29;;;;;;;;;51.67;34.33;;;;;5.74;62.09;101996.59;5062747;28;62225;-75
2021/12/22 06:34:55;;;;;;;;;47.33;38.00;;;;;5.77;61.89;101995.97;5076837;28;62227;-75
2021/12/22 06:37:20;;;;;;;;;57.33;42.00;;;;;5.83;61.74;101988.66;5045029;28;61997;-75
2021/12/22 06:39:45;;;;;;;;;58.00;45.00;;;;;5.82;62.00;101982.50;5042344;28;61801;-75
2021/12/22 06:42:11;;;;;;;;;57.67;43.33;;;;;5.76;61.63;101992.41;5058045;28;62138;-75
2021/12/22 06:44:36;;;;;;;;;50.67;37.33;;;;;5.64;61.42;101986.22;5042650;28;61930;-75
2021/12/22 06:47:02;;;;;;;;;57.00;41.67;;;;;5.76;61.16;102012.38;5041768;28;61775;-75
2021/12/22 06:49:28;;;;;;;;;48.00;37.33;;;;;5.70;61.80;102016.28;5042332;28;61671;-75
2021/12/22 06:51:53;;;;;;;;;51.67;38.67;;;;;5.81;61.85;102016.28;5040434;28;61917;-75
2021/12/22 06:54:19;;;;;;;;;45.33;41.00;;;;;5.84;61.35;102013.91;5041179;28;61745;-75
2021/12/22 06:56:44;;;;;;;;;59.67;42.33;;;;;5.85;61.52;102010.50;5056663;28;63751;-75
2021/12/22 06:59:13;;;;;;;;;45.67;32.33;;;;;5.79;61.65;102002.22;5042199;28;61898;-75
2021/12/22 07:01:38;;;;;;;;;58.33;41.33;;;;;5.80;61.56;102004.03;5057770;28;61832;-75
2021/12/22 07:04:04;;;;;;;;;70.00;45.33;;;;;5.80;61.75;102001.41;5042271;28;61762;-74
2021/12/22 07:06:30;;;;;;;;;55.67;45.00;;;;;5.78;61.78;101992.56;5041394;28;61765;-76
2021/12/22 07:08:56;;;;;;;;;52.00;40.00;;;;;5.90;61.76;102004.91;5049995;28;61764;-76
2021/12/22 07:11:22;;;;;;;;;53.00;40.00;;;;;5.80;61.30;101998.81;5059716;28;61793;-76
2021/12/22 07:13:47;;;;;;;;;53.33;44.67;;;;;5.62;61.55;101999.09;5062461;28;61778;-76
2021/12/22 07:16:17;;;;;;;;;55.67;43.00;;;;;5.58;61.84;101993.50;5061620;28;62033;-76
2021/12/22 07:18:44;;;;;;;;;49.67;40.33;;;;;5.52;62.12;101993.91;5062186;28;61825;-76
2021/12/22 07:21:11;;;;;;;;;79.00;45.33;;;;;5.56;61.96;101990.78;5059488;28;61893;-76
2021/12/22 07:23:37;;;;;;;;;58.67;44.00;;;;;5.49;61.86;101993.66;5077991;27;62149;-76
2021/12/22 07:26:02;;;;;;;;;68.00;45.00;;;;;5.44;62.04;101995.88;5060902;28;61804;-76
2021/12/22 07:28:28;;;;;;;;;52.33;42.67;;;;;5.48;62.11;101997.97;5061997;28;61765;-75
2021/12/22 07:30:53;;;;;;;;;41.00;38.33;;;;;5.53;62.14;102007.06;5061841;28;62038;-75
2021/12/22 07:33:19;;;;;;;;;60.33;43.00;;;;;5.55;61.83;101994.19;5060537;28;62048;-76
2021/12/22 07:35:59;;;;;;;;;59.67;39.67;;;;;5.65;61.89;101993.22;5060617;28;61785;-75
2021/12/22 07:38:24;;;;;;;;;54.00;44.00;;;;;5.60;61.41;101998.06;5077440;28;61961;-75
2021/12/22 07:40:55;;;;;;;;;61.67;46.00;;;;;5.61;61.16;101998.97;5061635;28;61875;-74
2021/12/22 07:43:20;;;;;;;;;48.33;36.67;;;;;5.56;61.51;102001.19;5057549;28;61982;-77
2021/12/22 07:45:46;;;;;;;;;45.00;41.67;;;;;5.60;61.51;101997.16;5059142;28;62178;-74
2021/12/22 07:48:11;;;;;;;;;53.33;40.67;;;;;5.63;61.91;102003.50;5056266;28;62153;-75
2021/12/22 07:50:37;;;;;;;;;59.00;39.33;;;;;5.53;61.54;101991.44;5064719;28;62084;-75
2021/12/22 07:53:03;;;;;;;;;49.33;40.33;;;;;5.47;61.34;102005.63;5051655;28;61974;-75
2021/12/22 07:55:29;;;;;;;;;60.00;44.00;;;;;5.44;61.66;102003.69;5063830;28;63697;-75
2021/12/22 07:57:54;;;;;;;;;52.00;37.67;;;;;5.46;61.56;102009.00;5051804;28;61775;-75
2021/12/22 08:00:19;;;;;;;;;59.33;42.00;;;;;5.58;61.28;102009.13;5051420;28;61937;-75
2021/12/22 08:02:45;;;;;;;;;58.00;40.67;;;;;5.57;61.36;102010.84;5048151;28;61909;-75
2021/12/22 08:05:11;;;;;;;;;59.33;42.00;;;;;5.46;61.57;102014.22;5047838;28;61960;-75
2021/12/22 08:07:36;;;;;;;;;59.67;46.00;;;;;5.37;61.33;102022.16;5055922;28;61840;-75
2021/12/22 08:10:04;;;;;;;;;63.00;47.00;;;;;5.48;61.54;102018.78;5046887;28;61777;-75
2021/12/22 08:12:30;;;;;;;;;55.00;43.00;;;;;5.54;61.68;102013.16;5049229;28;61988;-75
2021/12/22 08:14:55;;;;;;;;;64.67;45.33;;;;;5.65;61.37;102011.47;5058036;28;63719;-76
2021/12/22 08:17:21;;;;;;;;;71.00;47.00;;;;;5.70;61.32;102002.38;5045505;28;61861;-75
2021/12/22 08:19:47;;;;;;;;;68.00;46.67;;;;;5.70;60.88;102004.97;5064447;28;61877;-77
2021/12/22 08:22:12;;;;;;;;;66.67;48.67;;;;;5.65;61.13;102006.25;5042314;28;62085;-76
2021/12/22 08:24:38;;;;;;;;;68.67;46.67;;;;;5.71;60.85;101996.34;5052719;28;63849;-76
2021/12/22 08:27:04;;;;;;;;;62.33;46.67;;;;;5.73;61.00;101998.28;5060477;28;61895;-76
2021/12/22 08:29:29;;;;;;;;;65.33;45.00;;;;;5.71;61.30;101994.66;5060843;28;61824;-75
2021/12/22 08:31:55;;;;;;;;;61.33;44.67;;;;;5.68;61.26;102001.31;5057549;28;61828;-75
2021/12/22 08:34:28;;;;;;;;;63.33;47.33;;;;;5.62;61.35;101993.91;5047222;28;62759;-75
2021/12/22 08:39:40;;;;;;;;;63.00;47.00;;;;;5.66;61.83;101990.75;5056972;28;61924;-75
2021/12/22 08:42:07;;;;;;;;;63.67;48.33;;;;;5.68;61.00;101998.72;5056001;28;62225;-75
2021/12/22 08:44:33;;;;;;;;;57.67;45.33;;;;;5.74;61.22;101997.53;5048526;28;61958;-75
2021/12/22 08:46:59;;;;;;;;;65.33;46.33;;;;;5.83;61.26;101999.09;5066685;28;61862;-75
2021/12/22 08:49:25;;;;;;;;;57.67;41.33;;;;;5.99;61.17;101994.38;5069585;28;62039;-75
2021/12/22 08:51:50;;;;;;;;;56.33;38.00;;;;;6.01;60.84;101984.06;5051832;27;62238;-76
2021/12/22 08:54:17;;;;;;;;;60.67;43.00;;;;;6.03;60.58;101985.13;5066361;28;63785;-75
2021/12/22 08:56:43;;;;;;;;;70.33;48.67;;;;;6.04;60.22;101982.63;5059477;28;62014;-75
2021/12/22 08:59:11;;;;;;;;;72.67;50.00;;;;;6.05;60.14;101978.34;5043844;28;61834;-75
2021/12/22 09:01:37;;;;;;;;;61.67;44.00;;;;;6.12;60.53;101978.03;5044198;28;62139;-75
2021/12/22 09:04:02;;;;;;;;;69.33;47.00;;;;;6.09;60.08;101980.41;5043383;28;62243;-79
2021/12/22 09:06:28;;;;;;;;;66.67;47.33;;;;;6.04;60.05;101981.72;5078532;28;61845;-75
2021/12/22 09:08:53;;;;;;;;;69.00;51.00;;;;;5.92;60.51;101974.69;5058868;28;61849;-74
2021/12/22 09:11:20;;;;;;;;;74.67;52.67;;;;;5.92;60.47;101977.28;5052618;28;62136;-74
2021/12/22 09:13:45;;;;;;;;;63.67;42.67;;;;;5.88;60.77;101976.91;5052516;28;62871;-75
2021/12/22 09:16:11;;;;;;;;;61.67;44.67;;;;;5.91;60.60;101970.28;5049668;28;61895;-79
2021/12/22 09:18:38;;;;;;;;;64.67;47.00;;;;;5.93;61.16;101976.50;5053960;28;61923;-78
2021/12/22 09:21:05;;;;;;;;;59.67;43.00;;;;;6.08;60.79;101971.66;5049430;28;61992;-78
2021/12/22 09:23:31;;;;;;;;;57.33;41.33;;;;;6.19;59.96;101977.78;5048006;28;63541;-77
2021/12/22 09:25:56;;;;;;;;;55.33;44.33;;;;;6.25;60.74;101980.84;5050424;28;62430;-77
2021/12/22 09:28:22;;;;;;;;;54.00;44.00;;;;;6.26;59.73;101982.69;5048250;28;61887;-75
2021/12/22 09:30:49;;;;;;;;;66.33;47.00;;;;;6.25;59.63;101980.84;5053342;28;62066;-75
2021/12/22 09:33:16;;;;;;;;;66.00;48.67;;;;;6.31;59.72;101977.84;5051632;28;62760;-76
2021/12/22 09:35:48;;;;;;;;;61.00;41.33;;;;;6.28;59.24;101982.81;5072991;28;62211;-80
2021/12/22 09:38:14;;;;;;;;;58.00;43.67;;;;;6.45;59.46;101978.94;5074776;27;62066;-76
2021/12/22 09:40:39;;;;;;;;;50.67;39.00;;;;;6.64;59.21;101984.84;5042557;28;61805;-76
2021/12/22 09:43:06;;;;;;;;;63.00;45.00;;;;;6.70;58.83;101987.00;5040113;28;64659;-76
2021/12/22 09:45:35;;;;;;;;;70.67;41.33;;;;;6.61;58.25;101995.03;5060284;28;61760;-76
2021/12/22 09:50:47;;;;;;;;;58.67;44.00;;;;;6.71;58.97;101994.06;5051338;28;61766;-76
2021/12/22 09:53:19;;;;;;;;;63.00;45.00;;;;;6.78;58.60;101993.75;5041229;28;62488;-76
2021/12/22 09:55:45;;;;;;;;;67.33;45.67;;;;;6.82;58.89;101993.22;5042014;28;61941;-76
2021/12/22 09:58:11;;;;;;;;;59.67;40.00;;;;;6.86;58.43;101992.66;5057313;28;61978;-76
2021/12/22 10:00:38;;;;;;;;;56.00;44.33;;;;;6.99;58.51;101998.84;5041825;28;61758;-76
2021/12/22 10:03:06;;;;;;;;;70.67;50.67;;;;;7.03;58.93;101995.69;5041694;28;62934;-76
2021/12/22 10:05:32;;;;;;;;;66.67;45.33;;;;;7.08;58.74;101996.97;5040222;28;61872;-76
2021/12/22 10:08:15;;;;;;;;;63.67;45.00;;;;;7.16;58.10;101985.41;5041914;28;61790;-76
2021/12/22 10:10:47;;;;;;;;;64.00;48.33;;;;;7.17;57.88;101989.81;5042110;28;61726;-76
2021/12/22 10:13:16;;;;;;;;;57.67;41.00;;;;;7.13;57.09;101979.94;5056826;28;64245;-76
2021/12/22 10:15:43;;;;;;;;;71.67;52.00;;;;;7.20;57.86;101979.63;5040302;28;61708;-76
2021/12/22 10:18:13;;;;;;;;;55.33;43.33;;;;;7.30;57.68;101983.84;5041845;28;61883;-76
2021/12/22 10:20:40;;;;;;;;;67.33;46.67;;;;;7.21;57.09;101991.88;5041591;28;61751;-76
2021/12/22 10:23:26;;;;;;;;;70.67;46.67;;;;;7.18;57.64;101991.66;5041177;28;63293;-76
2021/12/22 10:25:59;;;;;;;;;64.67;49.33;;;;;7.35;57.97;101987.75;5041461;28;61819;-76
2021/12/22 10:28:26;;;;;;;;;67.33;49.00;;;;;7.55;58.10;101984.03;5041400;28;62167;-76
2021/12/22 10:30:58;;;;;;;;;64.33;46.00;;;;;7.62;57.16;101985.41;5050051;28;61959;-76
2021/12/22 10:33:31;;;;;;;;;74.67;49.33;;;;;7.82;57.92;101985.19;5045681;28;62742;-76
2021/12/22 10:36:12;;;;;;;;;73.67;51.67;;;;;7.84;56.50;101983.63;5054445;28;61823;-76
2021/12/22 10:38:37;;;;;;;;;70.67;47.00;;;;;7.74;56.74;101975.88;5043498;28;62182;-74
2021/12/22 10:41:06;;;;;;;;;67.67;48.67;;;;;7.82;57.07;101969.53;5041573;28;61936;-75
2021/12/22 10:43:34;;;;;;;;;70.33;47.00;;;;;7.79;56.53;101964.94;5065371;28;63849;-76
2021/12/22 10:46:02;;;;;;;;;71.67;50.33;;;;;7.74;56.26;101958.47;5048215;28;61806;-75
2021/12/22 10:51:23;;;;;;;;;72.00;48.33;;;;;7.79;56.54;101933.59;5051965;28;61887;-74
2021/12/22 10:53:50;;;;;;;;;69.00;52.67;;;;;7.78;56.10;101931.78;5054058;28;63372;-74
2021/12/22 10:56:21;;;;;;;;;72.00;50.00;;;;;7.68;56.33;101928.38;5058252;28;61892;-74
2021/12/22 10:58:47;;;;;;;;;69.00;46.00;;;;;7.77;56.59;101924.72;5059675;28;61804;-74
2021/12/22 11:01:17;;;;;;;;;74.00;53.00;;;;;7.95;56.40;101924.28;5059553;28;62140;-79
2021/12/22 11:03:52;;;;;;;;;67.00;47.00;;;;;8.06;56.24;101927.69;5043238;28;63968;-80
2021/12/22 11:06:23;;;;;;;;;75.33;52.33;;;;;8.13;55.69;101927.31;5056533;28;62128;-79
2021/12/22 11:09:02;;;;;;;;;65.00;47.00;;;;;8.15;55.44;101925.72;5042887;28;61750;-73
2021/12/22 11:11:31;;;;;;;;;75.67;47.67;;;;;8.11;55.93;101921.97;5056928;28;61812;-76
2021/12/22 11:14:09;;;;;;;;;74.00;52.67;;;;;8.15;56.13;101920.50;5047775;28;62170;-77
2021/12/22 11:16:50;;;;;;;;;68.67;49.67;;;;;8.10;55.57;101919.25;5053256;28;62232;-75
2021/12/22 11:19:16;;;;;;;;;63.00;51.33;;;;;8.08;55.75;101916.53;5061909;28;61733;-80
2021/12/22 11:21:57;;;;;;;;;64.33;49.33;;;;;8.12;55.54;101910.72;5052154;28;62068;-77
2021/12/22 11:24:23;;;;;;;;;68.33;45.33;;;;;8.09;55.17;101894.78;5058335;28;63742;-82
2021/12/22 11:26:50;;;;;;;;;76.00;53.00;;;;;8.18;55.54;101898.09;5054503;28;61892;-78
2021/12/22 11:29:15;;;;;;;;;67.33;50.67;;;;;8.26;55.99;101901.25;5046677;28;62055;-78
2021/12/22 11:31:41;;;;;;;;;77.00;52.00;;;;;8.28;55.70;101893.50;5044423;28;61763;-76
2021/12/22 11:34:07;;;;;;;;;76.67;54.00;;;;;8.32;55.51;101885.09;5047721;28;62039;-79
2021/12/22 11:36:34;;;;;;;;;71.00;53.67;;;;;8.40;55.28;101881.31;5056384;28;61838;-77
2021/12/22 11:39:00;;;;;;;;;74.67;52.33;;;;;8.40;54.83;101868.22;5061699;28;61809;-77
2021/12/22 11:41:27;;;;;;;;;72.00;52.33;;;;;8.46;55.57;101862.53;5061479;28;61851;-78